sensor_id;sensor_type;location;lat;lon;timestamp;P1;durP1;ratioP1;P2;durP2;ratioP2
21215;SDS011;10765;50.954;5.322;2023-02-15T00:01:59;31.00;;;24.20;;
21215;SDS011;10765;50.954;5.322;2023-02-15T00:04:26;36.70;;;26.83;;
21215;SDS011;10765;50.954;5.322;2023-02-15T00:07:12;65.90;;;42.27;;
21215;SDS011;10765;50.954;5.322;2023-02-15T00:09:41;54.77;;;36.00;;
21215;SDS011;10765;50.954;5.322;2023-02-15T00:12:08;43.57;;;30.23;;
21215;SDS011;10765;50.954;5.322;2023-02-15T00:14:36;42.40;;;29.60;;
21215;SDS011;10765;50.954;5.322;2023-02-15T00:17:02;41.23;;;28.80;;
21215;SDS011;10765;50.954;5.322;2023-02-15T00:19:29;42.83;;;29.23;;
21215;SDS011;10765;50.954;5.322;2023-02-15T00:21:56;34.30;;;26.13;;
21215;SDS011;10765;50.954;5.322;2023-02-15T00:24:25;35.03;;;25.63;;
21215;SDS011;10765;50.954;5.322;2023-02-15T00:26:52;36.07;;;26.67;;
21215;SDS011;10765;50.954;5.322;2023-02-15T00:29:19;34.53;;;24.20;;
21215;SDS011;10765;50.954;5.322;2023-02-15T00:31:46;26.43;;;19.53;;
21215;SDS011;10765;50.954;5.322;2023-02-15T00:34:14;27.13;;;20.03;;
21215;SDS011;10765;50.954;5.322;2023-02-15T00:36:43;22.60;;;16.47;;
21215;SDS011;10765;50.954;5.322;2023-02-15T00:39:11;22.40;;;16.93;;
21215;SDS011;10765;50.954;5.322;2023-02-15T00:41:40;27.40;;;20.70;;
21215;SDS011;10765;50.954;5.322;2023-02-15T00:44:07;32.13;;;21.40;;
21215;SDS011;10765;50.954;5.322;2023-02-15T00:46:34;29.37;;;19.97;;
21215;SDS011;10765;50.954;5.322;2023-02-15T00:49:02;30.70;;;24.00;;
21215;SDS011;10765;50.954;5.322;2023-02-15T00:51:30;32.43;;;23.30;;
21215;SDS011;10765;50.954;5.322;2023-02-15T00:53:57;32.37;;;23.60;;
21215;SDS011;10765;50.954;5.322;2023-02-15T00:56:24;31.63;;;23.40;;
21215;SDS011;10765;50.954;5.322;2023-02-15T00:58:54;30.07;;;22.73;;
21215;SDS011;10765;50.954;5.322;2023-02-15T01:01:21;29.53;;;22.40;;
21215;SDS011;10765;50.954;5.322;2023-02-15T01:03:50;30.57;;;20.90;;
21215;SDS011;10765;50.954;5.322;2023-02-15T01:06:17;27.13;;;21.00;;
21215;SDS011;10765;50.954;5.322;2023-02-15T01:08:45;28.53;;;20.73;;
21215;SDS011;10765;50.954;5.322;2023-02-15T01:11:13;28.07;;;20.23;;
21215;SDS011;10765;50.954;5.322;2023-02-15T01:13:46;29.53;;;21.33;;
21215;SDS011;10765;50.954;5.322;2023-02-15T01:16:15;27.97;;;20.33;;
21215;SDS011;10765;50.954;5.322;2023-02-15T01:18:43;27.70;;;21.60;;
21215;SDS011;10765;50.954;5.322;2023-02-15T01:21:11;29.37;;;20.97;;
21215;SDS011;10765;50.954;5.322;2023-02-15T01:23:40;27.20;;;20.63;;
21215;SDS011;10765;50.954;5.322;2023-02-15T01:26:07;25.27;;;19.97;;
21215;SDS011;10765;50.954;5.322;2023-02-15T01:28:34;26.03;;;19.30;;
21215;SDS011;10765;50.954;5.322;2023-02-15T01:31:04;26.03;;;20.57;;
21215;SDS011;10765;50.954;5.322;2023-02-15T01:33:34;26.13;;;19.10;;
21215;SDS011;10765;50.954;5.322;2023-02-15T01:36:01;27.70;;;21.00;;
21215;SDS011;10765;50.954;5.322;2023-02-15T01:38:28;24.17;;;18.60;;
21215;SDS011;10765;50.954;5.322;2023-02-15T01:40:55;22.30;;;17.63;;
21215;SDS011;10765;50.954;5.322;2023-02-15T01:43:44;28.00;;;19.13;;
21215;SDS011;10765;50.954;5.322;2023-02-15T01:46:13;24.97;;;19.20;;
21215;SDS011;10765;50.954;5.322;2023-02-15T01:48:45;27.03;;;18.77;;
21215;SDS011;10765;50.954;5.322;2023-02-15T01:51:16;23.43;;;17.97;;
21215;SDS011;10765;50.954;5.322;2023-02-15T01:53:46;25.77;;;18.97;;
21215;SDS011;10765;50.954;5.322;2023-02-15T01:56:19;25.80;;;18.93;;
21215;SDS011;10765;50.954;5.322;2023-02-15T01:58:48;28.73;;;21.10;;
21215;SDS011;10765;50.954;5.322;2023-02-15T02:01:17;31.00;;;22.17;;
21215;SDS011;10765;50.954;5.322;2023-02-15T02:03:56;31.47;;;22.37;;
21215;SDS011;10765;50.954;5.322;2023-02-15T02:06:28;32.53;;;22.90;;
21215;SDS011;10765;50.954;5.322;2023-02-15T02:08:56;31.53;;;22.23;;
21215;SDS011;10765;50.954;5.322;2023-02-15T02:11:24;29.93;;;22.13;;
21215;SDS011;10765;50.954;5.322;2023-02-15T02:13:51;29.67;;;22.07;;
21215;SDS011;10765;50.954;5.322;2023-02-15T02:16:20;28.93;;;22.10;;
21215;SDS011;10765;50.954;5.322;2023-02-15T02:18:56;28.73;;;21.27;;
21215;SDS011;10765;50.954;5.322;2023-02-15T02:21:48;26.20;;;19.70;;
21215;SDS011;10765;50.954;5.322;2023-02-15T02:24:40;29.90;;;20.73;;
21215;SDS011;10765;50.954;5.322;2023-02-15T02:27:29;30.40;;;20.93;;
21215;SDS011;10765;50.954;5.322;2023-02-15T02:36:21;27.03;;;20.47;;
21215;SDS011;10765;50.954;5.322;2023-02-15T02:38:58;29.33;;;21.60;;
21215;SDS011;10765;50.954;5.322;2023-02-15T02:41:36;37.17;;;24.10;;
21215;SDS011;10765;50.954;5.322;2023-02-15T02:44:11;29.03;;;19.40;;
21215;SDS011;10765;50.954;5.322;2023-02-15T02:46:45;27.00;;;19.63;;
21215;SDS011;10765;50.954;5.322;2023-02-15T02:49:16;27.93;;;19.27;;
21215;SDS011;10765;50.954;5.322;2023-02-15T02:51:44;31.33;;;22.60;;
21215;SDS011;10765;50.954;5.322;2023-02-15T02:54:11;29.87;;;21.40;;
21215;SDS011;10765;50.954;5.322;2023-02-15T02:56:39;26.40;;;19.47;;
21215;SDS011;10765;50.954;5.322;2023-02-15T02:59:12;30.27;;;21.30;;
21215;SDS011;10765;50.954;5.322;2023-02-15T03:01:44;36.07;;;23.80;;
21215;SDS011;10765;50.954;5.322;2023-02-15T03:04:17;33.43;;;23.13;;
21215;SDS011;10765;50.954;5.322;2023-02-15T03:06:51;32.77;;;23.47;;
21215;SDS011;10765;50.954;5.322;2023-02-15T03:09:24;31.67;;;23.40;;
21215;SDS011;10765;50.954;5.322;2023-02-15T03:11:59;30.57;;;23.17;;
21215;SDS011;10765;50.954;5.322;2023-02-15T03:14:28;33.07;;;22.10;;
21215;SDS011;10765;50.954;5.322;2023-02-15T03:16:55;31.83;;;22.37;;
21215;SDS011;10765;50.954;5.322;2023-02-15T03:19:24;33.03;;;23.27;;
21215;SDS011;10765;50.954;5.322;2023-02-15T03:21:57;33.00;;;23.73;;
21215;SDS011;10765;50.954;5.322;2023-02-15T03:24:34;38.77;;;24.70;;
21215;SDS011;10765;50.954;5.322;2023-02-15T03:27:06;37.40;;;24.37;;
21215;SDS011;10765;50.954;5.322;2023-02-15T03:29:36;29.93;;;21.33;;
21215;SDS011;10765;50.954;5.322;2023-02-15T03:32:05;29.00;;;21.27;;
21215;SDS011;10765;50.954;5.322;2023-02-15T03:34:36;31.63;;;21.93;;
21215;SDS011;10765;50.954;5.322;2023-02-15T03:37:05;32.40;;;22.87;;
21215;SDS011;10765;50.954;5.322;2023-02-15T03:39:40;34.00;;;23.40;;
21215;SDS011;10765;50.954;5.322;2023-02-15T03:42:12;31.50;;;23.23;;
21215;SDS011;10765;50.954;5.322;2023-02-15T03:44:46;31.57;;;22.47;;
21215;SDS011;10765;50.954;5.322;2023-02-15T03:47:19;38.07;;;25.80;;
21215;SDS011;10765;50.954;5.322;2023-02-15T03:49:51;34.47;;;24.00;;
21215;SDS011;10765;50.954;5.322;2023-02-15T03:52:24;35.67;;;25.30;;
21215;SDS011;10765;50.954;5.322;2023-02-15T03:54:53;42.87;;;28.20;;
21215;SDS011;10765;50.954;5.322;2023-02-15T03:57:21;38.50;;;27.17;;
21215;SDS011;10765;50.954;5.322;2023-02-15T04:00:11;39.97;;;29.23;;
21215;SDS011;10765;50.954;5.322;2023-02-15T04:03:18;43.00;;;28.50;;
21215;SDS011;10765;50.954;5.322;2023-02-15T04:05:52;40.67;;;28.93;;
21215;SDS011;10765;50.954;5.322;2023-02-15T04:08:20;33.10;;;25.30;;
21215;SDS011;10765;50.954;5.322;2023-02-15T04:11:08;41.57;;;28.47;;
21215;SDS011;10765;50.954;5.322;2023-02-15T04:13:34;41.03;;;28.10;;
21215;SDS011;10765;50.954;5.322;2023-02-15T04:16:00;33.00;;;24.27;;
21215;SDS011;10765;50.954;5.322;2023-02-15T04:18:29;34.20;;;24.40;;
21215;SDS011;10765;50.954;5.322;2023-02-15T04:21:14;34.97;;;24.27;;
21215;SDS011;10765;50.954;5.322;2023-02-15T04:24:00;33.00;;;23.47;;
21215;SDS011;10765;50.954;5.322;2023-02-15T04:26:44;33.20;;;25.03;;
21215;SDS011;10765;50.954;5.322;2023-02-15T04:29:14;34.07;;;24.87;;
21215;SDS011;10765;50.954;5.322;2023-02-15T04:31:41;35.67;;;24.53;;
21215;SDS011;10765;50.954;5.322;2023-02-15T04:34:08;32.97;;;23.47;;
21215;SDS011;10765;50.954;5.322;2023-02-15T04:36:36;31.50;;;23.00;;
21215;SDS011;10765;50.954;5.322;2023-02-15T04:39:04;29.93;;;23.13;;
21215;SDS011;10765;50.954;5.322;2023-02-15T04:41:31;30.00;;;22.97;;
21215;SDS011;10765;50.954;5.322;2023-02-15T04:43:59;29.67;;;22.40;;
21215;SDS011;10765;50.954;5.322;2023-02-15T04:46:26;32.97;;;22.77;;
21215;SDS011;10765;50.954;5.322;2023-02-15T04:48:53;32.30;;;22.97;;
21215;SDS011;10765;50.954;5.322;2023-02-15T04:51:21;33.23;;;23.73;;
21215;SDS011;10765;50.954;5.322;2023-02-15T04:53:48;29.17;;;21.57;;
21215;SDS011;10765;50.954;5.322;2023-02-15T04:56:19;32.33;;;22.87;;
21215;SDS011;10765;50.954;5.322;2023-02-15T04:58:46;34.50;;;23.20;;
21215;SDS011;10765;50.954;5.322;2023-02-15T05:01:14;34.53;;;22.00;;
21215;SDS011;10765;50.954;5.322;2023-02-15T05:03:41;33.10;;;23.40;;
21215;SDS011;10765;50.954;5.322;2023-02-15T05:06:07;35.13;;;23.97;;
21215;SDS011;10765;50.954;5.322;2023-02-15T05:08:34;32.33;;;21.93;;
21215;SDS011;10765;50.954;5.322;2023-02-15T05:11:01;30.50;;;22.80;;
21215;SDS011;10765;50.954;5.322;2023-02-15T05:13:29;28.87;;;21.27;;
21215;SDS011;10765;50.954;5.322;2023-02-15T05:15:56;31.70;;;22.57;;
21215;SDS011;10765;50.954;5.322;2023-02-15T05:18:23;28.60;;;22.33;;
21215;SDS011;10765;50.954;5.322;2023-02-15T05:20:50;30.27;;;22.63;;
21215;SDS011;10765;50.954;5.322;2023-02-15T05:23:17;32.37;;;23.07;;
21215;SDS011;10765;50.954;5.322;2023-02-15T05:25:46;52.30;;;32.33;;
21215;SDS011;10765;50.954;5.322;2023-02-15T05:28:32;39.50;;;27.17;;
21215;SDS011;10765;50.954;5.322;2023-02-15T05:31:02;32.43;;;24.30;;
21215;SDS011;10765;50.954;5.322;2023-02-15T05:33:30;34.27;;;25.17;;
21215;SDS011;10765;50.954;5.322;2023-02-15T05:35:58;34.53;;;24.70;;
21215;SDS011;10765;50.954;5.322;2023-02-15T05:38:25;34.40;;;25.43;;
21215;SDS011;10765;50.954;5.322;2023-02-15T05:40:52;36.60;;;24.10;;
21215;SDS011;10765;50.954;5.322;2023-02-15T05:43:19;37.07;;;26.27;;
21215;SDS011;10765;50.954;5.322;2023-02-15T05:45:48;36.47;;;24.63;;
21215;SDS011;10765;50.954;5.322;2023-02-15T05:48:15;38.50;;;26.00;;
21215;SDS011;10765;50.954;5.322;2023-02-15T05:50:43;35.30;;;25.90;;
21215;SDS011;10765;50.954;5.322;2023-02-15T05:53:10;37.57;;;26.80;;
21215;SDS011;10765;50.954;5.322;2023-02-15T05:55:37;38.47;;;27.30;;
21215;SDS011;10765;50.954;5.322;2023-02-15T05:58:05;36.87;;;25.80;;
21215;SDS011;10765;50.954;5.322;2023-02-15T06:00:32;34.37;;;24.53;;
21215;SDS011;10765;50.954;5.322;2023-02-15T06:03:01;33.50;;;25.63;;
21215;SDS011;10765;50.954;5.322;2023-02-15T06:05:28;33.60;;;23.67;;
21215;SDS011;10765;50.954;5.322;2023-02-15T06:07:55;32.83;;;25.13;;
21215;SDS011;10765;50.954;5.322;2023-02-15T06:10:22;33.50;;;24.67;;
21215;SDS011;10765;50.954;5.322;2023-02-15T06:12:49;31.93;;;22.87;;
21215;SDS011;10765;50.954;5.322;2023-02-15T06:15:15;34.47;;;25.73;;
21215;SDS011;10765;50.954;5.322;2023-02-15T06:17:42;36.93;;;24.83;;
21215;SDS011;10765;50.954;5.322;2023-02-15T06:20:11;38.53;;;26.57;;
21215;SDS011;10765;50.954;5.322;2023-02-15T06:22:38;38.43;;;26.87;;
21215;SDS011;10765;50.954;5.322;2023-02-15T06:25:05;36.97;;;24.93;;
21215;SDS011;10765;50.954;5.322;2023-02-15T06:27:35;36.87;;;25.60;;
21215;SDS011;10765;50.954;5.322;2023-02-15T06:30:02;30.83;;;24.47;;
21215;SDS011;10765;50.954;5.322;2023-02-15T06:32:30;31.40;;;24.37;;
21215;SDS011;10765;50.954;5.322;2023-02-15T06:34:57;31.40;;;24.23;;
21215;SDS011;10765;50.954;5.322;2023-02-15T06:37:25;37.30;;;25.57;;
21215;SDS011;10765;50.954;5.322;2023-02-15T06:39:53;39.53;;;27.77;;
21215;SDS011;10765;50.954;5.322;2023-02-15T06:42:20;33.20;;;25.93;;
21215;SDS011;10765;50.954;5.322;2023-02-15T06:44:47;38.60;;;26.83;;
21215;SDS011;10765;50.954;5.322;2023-02-15T06:47:14;36.90;;;24.13;;
21215;SDS011;10765;50.954;5.322;2023-02-15T06:49:41;38.07;;;25.77;;
21215;SDS011;10765;50.954;5.322;2023-02-15T06:52:08;37.77;;;27.43;;
21215;SDS011;10765;50.954;5.322;2023-02-15T06:54:36;35.50;;;24.70;;
21215;SDS011;10765;50.954;5.322;2023-02-15T06:57:03;32.20;;;23.63;;
21215;SDS011;10765;50.954;5.322;2023-02-15T06:59:30;34.17;;;24.37;;
21215;SDS011;10765;50.954;5.322;2023-02-15T07:01:57;36.07;;;25.63;;
21215;SDS011;10765;50.954;5.322;2023-02-15T07:04:24;33.03;;;24.20;;
21215;SDS011;10765;50.954;5.322;2023-02-15T07:06:53;31.13;;;23.17;;
21215;SDS011;10765;50.954;5.322;2023-02-15T07:09:20;35.67;;;26.97;;
21215;SDS011;10765;50.954;5.322;2023-02-15T07:11:48;43.07;;;30.60;;
21215;SDS011;10765;50.954;5.322;2023-02-15T07:14:33;47.53;;;32.40;;
21215;SDS011;10765;50.954;5.322;2023-02-15T07:17:00;45.30;;;30.57;;
21215;SDS011;10765;50.954;5.322;2023-02-15T07:19:27;41.27;;;30.30;;
21215;SDS011;10765;50.954;5.322;2023-02-15T07:21:54;45.53;;;30.87;;
21215;SDS011;10765;50.954;5.322;2023-02-15T07:24:21;41.03;;;29.27;;
21215;SDS011;10765;50.954;5.322;2023-02-15T07:26:49;40.87;;;27.90;;
21215;SDS011;10765;50.954;5.322;2023-02-15T07:29:16;39.10;;;29.13;;
21215;SDS011;10765;50.954;5.322;2023-02-15T07:31:43;37.73;;;28.37;;
21215;SDS011;10765;50.954;5.322;2023-02-15T07:34:10;31.93;;;25.13;;
21215;SDS011;10765;50.954;5.322;2023-02-15T07:36:37;38.70;;;28.10;;
21215;SDS011;10765;50.954;5.322;2023-02-15T07:39:04;36.43;;;27.57;;
21215;SDS011;10765;50.954;5.322;2023-02-15T07:41:31;35.33;;;26.47;;
21215;SDS011;10765;50.954;5.322;2023-02-15T07:43:59;32.30;;;25.37;;
21215;SDS011;10765;50.954;5.322;2023-02-15T07:46:26;35.40;;;24.40;;
21215;SDS011;10765;50.954;5.322;2023-02-15T07:48:53;32.57;;;23.53;;
21215;SDS011;10765;50.954;5.322;2023-02-15T07:51:20;31.03;;;25.27;;
21215;SDS011;10765;50.954;5.322;2023-02-15T07:53:47;33.90;;;25.53;;
21215;SDS011;10765;50.954;5.322;2023-02-15T07:56:16;32.57;;;25.20;;
21215;SDS011;10765;50.954;5.322;2023-02-15T07:58:43;28.90;;;24.60;;
21215;SDS011;10765;50.954;5.322;2023-02-15T08:01:22;32.30;;;24.40;;
21215;SDS011;10765;50.954;5.322;2023-02-15T08:03:51;34.50;;;24.13;;
21215;SDS011;10765;50.954;5.322;2023-02-15T08:06:18;31.37;;;24.00;;
21215;SDS011;10765;50.954;5.322;2023-02-15T08:08:45;31.87;;;24.00;;
21215;SDS011;10765;50.954;5.322;2023-02-15T08:11:17;35.17;;;24.27;;
21215;SDS011;10765;50.954;5.322;2023-02-15T08:14:02;31.13;;;24.50;;
21215;SDS011;10765;50.954;5.322;2023-02-15T08:16:32;29.13;;;25.27;;
21215;SDS011;10765;50.954;5.322;2023-02-15T08:19:01;31.47;;;24.30;;
21215;SDS011;10765;50.954;5.322;2023-02-15T08:21:30;37.30;;;24.63;;
21215;SDS011;10765;50.954;5.322;2023-02-15T08:23:58;34.73;;;24.37;;
21215;SDS011;10765;50.954;5.322;2023-02-15T08:26:25;31.93;;;24.23;;
21215;SDS011;10765;50.954;5.322;2023-02-15T08:28:53;34.97;;;23.93;;
21215;SDS011;10765;50.954;5.322;2023-02-15T08:31:21;31.57;;;24.53;;
21215;SDS011;10765;50.954;5.322;2023-02-15T08:33:50;34.37;;;24.47;;
21215;SDS011;10765;50.954;5.322;2023-02-15T08:36:19;30.20;;;23.80;;
21215;SDS011;10765;50.954;5.322;2023-02-15T08:38:47;31.00;;;22.83;;
21215;SDS011;10765;50.954;5.322;2023-02-15T08:41:15;26.87;;;22.77;;
21215;SDS011;10765;50.954;5.322;2023-02-15T08:43:45;25.80;;;22.67;;
21215;SDS011;10765;50.954;5.322;2023-02-15T08:46:13;26.97;;;23.20;;
21215;SDS011;10765;50.954;5.322;2023-02-15T08:48:41;28.70;;;23.50;;
21215;SDS011;10765;50.954;5.322;2023-02-15T08:51:10;29.13;;;22.43;;
21215;SDS011;10765;50.954;5.322;2023-02-15T08:53:39;30.63;;;23.27;;
21215;SDS011;10765;50.954;5.322;2023-02-15T08:56:07;29.30;;;22.43;;
21215;SDS011;10765;50.954;5.322;2023-02-15T08:58:34;28.10;;;23.27;;
21215;SDS011;10765;50.954;5.322;2023-02-15T09:01:07;29.83;;;24.50;;
21215;SDS011;10765;50.954;5.322;2023-02-15T09:03:35;29.93;;;24.00;;
21215;SDS011;10765;50.954;5.322;2023-02-15T09:06:02;28.90;;;22.93;;
21215;SDS011;10765;50.954;5.322;2023-02-15T09:08:30;31.40;;;24.50;;
21215;SDS011;10765;50.954;5.322;2023-02-15T09:11:07;27.70;;;23.57;;
21215;SDS011;10765;50.954;5.322;2023-02-15T09:13:35;33.07;;;23.37;;
21215;SDS011;10765;50.954;5.322;2023-02-15T09:16:04;32.63;;;24.47;;
21215;SDS011;10765;50.954;5.322;2023-02-15T09:18:32;30.27;;;24.17;;
21215;SDS011;10765;50.954;5.322;2023-02-15T09:21:09;28.90;;;24.30;;
21215;SDS011;10765;50.954;5.322;2023-02-15T09:23:40;29.70;;;23.47;;
21215;SDS011;10765;50.954;5.322;2023-02-15T09:26:08;30.13;;;24.93;;
21215;SDS011;10765;50.954;5.322;2023-02-15T09:28:37;32.80;;;25.03;;
21215;SDS011;10765;50.954;5.322;2023-02-15T09:31:08;32.57;;;25.73;;
21215;SDS011;10765;50.954;5.322;2023-02-15T09:33:37;34.30;;;24.27;;
21215;SDS011;10765;50.954;5.322;2023-02-15T09:36:05;33.60;;;24.70;;
21215;SDS011;10765;50.954;5.322;2023-02-15T09:38:42;27.37;;;24.13;;
21215;SDS011;10765;50.954;5.322;2023-02-15T09:41:14;28.93;;;24.27;;
21215;SDS011;10765;50.954;5.322;2023-02-15T09:43:55;27.20;;;23.53;;
21215;SDS011;10765;50.954;5.322;2023-02-15T09:46:33;36.10;;;25.50;;
21215;SDS011;10765;50.954;5.322;2023-02-15T09:49:19;29.57;;;23.33;;
21215;SDS011;10765;50.954;5.322;2023-02-15T09:52:01;33.23;;;24.20;;
21215;SDS011;10765;50.954;5.322;2023-02-15T09:54:58;28.87;;;23.37;;
21215;SDS011;10765;50.954;5.322;2023-02-15T09:57:37;29.13;;;24.30;;
21215;SDS011;10765;50.954;5.322;2023-02-15T10:00:12;25.97;;;22.80;;
21215;SDS011;10765;50.954;5.322;2023-02-15T10:03:04;28.47;;;22.80;;
21215;SDS011;10765;50.954;5.322;2023-02-15T10:05:48;24.57;;;21.87;;
21215;SDS011;10765;50.954;5.322;2023-02-15T10:08:32;22.50;;;19.47;;
21215;SDS011;10765;50.954;5.322;2023-02-15T10:11:20;22.07;;;19.27;;
21215;SDS011;10765;50.954;5.322;2023-02-15T10:14:20;22.30;;;20.10;;
21215;SDS011;10765;50.954;5.322;2023-02-15T10:17:05;24.70;;;19.27;;
21215;SDS011;10765;50.954;5.322;2023-02-15T10:19:52;21.67;;;19.47;;
21215;SDS011;10765;50.954;5.322;2023-02-15T10:22:32;21.00;;;18.90;;
21215;SDS011;10765;50.954;5.322;2023-02-15T10:28:01;21.40;;;19.20;;
21215;SDS011;10765;50.954;5.322;2023-02-15T10:30:34;21.83;;;19.30;;
21215;SDS011;10765;50.954;5.322;2023-02-15T10:33:10;22.23;;;19.93;;
21215;SDS011;10765;50.954;5.322;2023-02-15T10:35:48;21.03;;;18.00;;
21215;SDS011;10765;50.954;5.322;2023-02-15T10:38:25;22.53;;;19.23;;
21215;SDS011;10765;50.954;5.322;2023-02-15T10:41:02;21.70;;;19.40;;
21215;SDS011;10765;50.954;5.322;2023-02-15T10:43:47;21.60;;;19.27;;
21215;SDS011;10765;50.954;5.322;2023-02-15T10:46:31;21.93;;;19.53;;
21215;SDS011;10765;50.954;5.322;2023-02-15T10:49:21;21.00;;;18.87;;
21215;SDS011;10765;50.954;5.322;2023-02-15T10:51:59;21.57;;;19.37;;
21215;SDS011;10765;50.954;5.322;2023-02-15T10:54:41;20.43;;;18.33;;
21215;SDS011;10765;50.954;5.322;2023-02-15T10:57:17;22.57;;;19.50;;
21215;SDS011;10765;50.954;5.322;2023-02-15T10:59:55;20.70;;;18.70;;
21215;SDS011;10765;50.954;5.322;2023-02-15T11:02:31;21.83;;;19.40;;
21215;SDS011;10765;50.954;5.322;2023-02-15T11:05:16;23.27;;;19.47;;
21215;SDS011;10765;50.954;5.322;2023-02-15T11:07:52;21.80;;;19.30;;
21215;SDS011;10765;50.954;5.322;2023-02-15T11:10:26;22.40;;;19.43;;
21215;SDS011;10765;50.954;5.322;2023-02-15T11:12:56;21.23;;;19.03;;
21215;SDS011;10765;50.954;5.322;2023-02-15T11:15:29;22.40;;;19.20;;
21215;SDS011;10765;50.954;5.322;2023-02-15T11:18:00;21.97;;;19.30;;
21215;SDS011;10765;50.954;5.322;2023-02-15T11:20:33;21.57;;;19.27;;
21215;SDS011;10765;50.954;5.322;2023-02-15T11:23:07;20.93;;;18.70;;
21215;SDS011;10765;50.954;5.322;2023-02-15T11:25:41;20.67;;;18.43;;
21215;SDS011;10765;50.954;5.322;2023-02-15T11:28:12;20.53;;;17.90;;
21215;SDS011;10765;50.954;5.322;2023-02-15T11:30:47;20.17;;;17.90;;
21215;SDS011;10765;50.954;5.322;2023-02-15T11:33:18;20.13;;;17.97;;
21215;SDS011;10765;50.954;5.322;2023-02-15T11:35:50;20.80;;;18.17;;
21215;SDS011;10765;50.954;5.322;2023-02-15T11:38:21;20.10;;;17.73;;
21215;SDS011;10765;50.954;5.322;2023-02-15T11:40:51;20.83;;;18.30;;
21215;SDS011;10765;50.954;5.322;2023-02-15T11:43:23;20.40;;;18.20;;
21215;SDS011;10765;50.954;5.322;2023-02-15T11:45:56;21.57;;;17.10;;
21215;SDS011;10765;50.954;5.322;2023-02-15T11:48:23;19.80;;;17.60;;
21215;SDS011;10765;50.954;5.322;2023-02-15T11:50:50;21.33;;;17.70;;
21215;SDS011;10765;50.954;5.322;2023-02-15T11:53:17;19.90;;;17.90;;
21215;SDS011;10765;50.954;5.322;2023-02-15T11:55:47;21.93;;;17.90;;
21215;SDS011;10765;50.954;5.322;2023-02-15T11:58:19;21.30;;;18.17;;
21215;SDS011;10765;50.954;5.322;2023-02-15T12:00:55;19.93;;;17.80;;
21215;SDS011;10765;50.954;5.322;2023-02-15T12:03:28;20.47;;;18.03;;
21215;SDS011;10765;50.954;5.322;2023-02-15T12:06:03;21.27;;;17.77;;
21215;SDS011;10765;50.954;5.322;2023-02-15T12:08:34;21.37;;;18.17;;
21215;SDS011;10765;50.954;5.322;2023-02-15T12:11:06;20.97;;;18.37;;
21215;SDS011;10765;50.954;5.322;2023-02-15T12:13:37;20.87;;;17.33;;
21215;SDS011;10765;50.954;5.322;2023-02-15T12:16:22;21.50;;;17.80;;
21215;SDS011;10765;50.954;5.322;2023-02-15T12:18:50;22.13;;;16.90;;
21215;SDS011;10765;50.954;5.322;2023-02-15T12:21:24;21.10;;;17.27;;
21215;SDS011;10765;50.954;5.322;2023-02-15T12:23:53;20.73;;;16.73;;
21215;SDS011;10765;50.954;5.322;2023-02-15T12:26:26;21.70;;;16.53;;
21215;SDS011;10765;50.954;5.322;2023-02-15T12:28:55;20.73;;;17.43;;
21215;SDS011;10765;50.954;5.322;2023-02-15T12:31:28;22.97;;;18.03;;
21215;SDS011;10765;50.954;5.322;2023-02-15T12:34:00;21.23;;;16.67;;
21215;SDS011;10765;50.954;5.322;2023-02-15T12:36:40;23.13;;;17.53;;
21215;SDS011;10765;50.954;5.322;2023-02-15T12:39:18;21.37;;;17.60;;
21215;SDS011;10765;50.954;5.322;2023-02-15T12:41:58;21.30;;;17.13;;
21215;SDS011;10765;50.954;5.322;2023-02-15T12:44:27;21.40;;;17.83;;
21215;SDS011;10765;50.954;5.322;2023-02-15T12:46:57;22.40;;;17.40;;
21215;SDS011;10765;50.954;5.322;2023-02-15T12:49:26;20.20;;;16.63;;
21215;SDS011;10765;50.954;5.322;2023-02-15T12:51:54;20.60;;;16.93;;
21215;SDS011;10765;50.954;5.322;2023-02-15T12:54:30;22.10;;;18.00;;
21215;SDS011;10765;50.954;5.322;2023-02-15T12:57:14;21.87;;;17.93;;
21215;SDS011;10765;50.954;5.322;2023-02-15T12:59:48;21.60;;;18.00;;
21215;SDS011;10765;50.954;5.322;2023-02-15T13:02:19;22.70;;;18.37;;
21215;SDS011;10765;50.954;5.322;2023-02-15T13:04:57;22.17;;;17.83;;
21215;SDS011;10765;50.954;5.322;2023-02-15T13:07:38;21.83;;;17.87;;
21215;SDS011;10765;50.954;5.322;2023-02-15T13:10:18;23.60;;;17.50;;
21215;SDS011;10765;50.954;5.322;2023-02-15T13:12:50;21.83;;;17.80;;
21215;SDS011;10765;50.954;5.322;2023-02-15T13:15:26;23.00;;;18.23;;
21215;SDS011;10765;50.954;5.322;2023-02-15T13:18:00;21.43;;;17.20;;
21215;SDS011;10765;50.954;5.322;2023-02-15T13:20:28;22.77;;;17.67;;
21215;SDS011;10765;50.954;5.322;2023-02-15T13:22:59;24.60;;;18.23;;
21215;SDS011;10765;50.954;5.322;2023-02-15T13:25:31;24.33;;;18.37;;
21215;SDS011;10765;50.954;5.322;2023-02-15T13:28:05;20.60;;;17.53;;
21215;SDS011;10765;50.954;5.322;2023-02-15T13:30:36;23.00;;;18.00;;
21215;SDS011;10765;50.954;5.322;2023-02-15T13:33:10;23.57;;;18.70;;
21215;SDS011;10765;50.954;5.322;2023-02-15T13:35:44;22.90;;;17.87;;
21215;SDS011;10765;50.954;5.322;2023-02-15T13:38:22;20.90;;;17.40;;
21215;SDS011;10765;50.954;5.322;2023-02-15T13:41:09;21.53;;;18.40;;
21215;SDS011;10765;50.954;5.322;2023-02-15T13:43:43;22.27;;;17.77;;
21215;SDS011;10765;50.954;5.322;2023-02-15T13:46:23;23.70;;;18.73;;
21215;SDS011;10765;50.954;5.322;2023-02-15T13:49:04;21.70;;;18.23;;
21215;SDS011;10765;50.954;5.322;2023-02-15T13:51:43;20.77;;;17.60;;
21215;SDS011;10765;50.954;5.322;2023-02-15T13:54:23;24.40;;;19.23;;
21215;SDS011;10765;50.954;5.322;2023-02-15T13:57:11;19.60;;;16.80;;
21215;SDS011;10765;50.954;5.322;2023-02-15T13:59:56;22.23;;;18.70;;
21215;SDS011;10765;50.954;5.322;2023-02-15T14:02:45;22.30;;;18.20;;
21215;SDS011;10765;50.954;5.322;2023-02-15T14:08:51;22.13;;;18.20;;
21215;SDS011;10765;50.954;5.322;2023-02-15T14:11:31;21.10;;;18.50;;
21215;SDS011;10765;50.954;5.322;2023-02-15T14:17:25;21.30;;;18.47;;
21215;SDS011;10765;50.954;5.322;2023-02-15T14:20:01;23.73;;;18.70;;
21215;SDS011;10765;50.954;5.322;2023-02-15T14:22:35;21.13;;;17.80;;
21215;SDS011;10765;50.954;5.322;2023-02-15T14:25:13;23.00;;;18.77;;
21215;SDS011;10765;50.954;5.322;2023-02-15T14:27:48;22.73;;;19.03;;
21215;SDS011;10765;50.954;5.322;2023-02-15T14:30:21;22.67;;;18.60;;
21215;SDS011;10765;50.954;5.322;2023-02-15T14:32:52;23.17;;;19.70;;
21215;SDS011;10765;50.954;5.322;2023-02-15T14:35:22;22.10;;;18.30;;
21215;SDS011;10765;50.954;5.322;2023-02-15T14:37:54;21.83;;;18.73;;
21215;SDS011;10765;50.954;5.322;2023-02-15T14:40:31;22.67;;;19.90;;
21215;SDS011;10765;50.954;5.322;2023-02-15T14:43:23;23.87;;;19.63;;
21215;SDS011;10765;50.954;5.322;2023-02-15T14:46:01;22.07;;;19.50;;
21215;SDS011;10765;50.954;5.322;2023-02-15T14:48:36;24.10;;;20.50;;
21215;SDS011;10765;50.954;5.322;2023-02-15T14:51:09;22.93;;;19.57;;
21215;SDS011;10765;50.954;5.322;2023-02-15T14:53:38;23.37;;;19.97;;
21215;SDS011;10765;50.954;5.322;2023-02-15T14:56:16;23.77;;;20.07;;
21215;SDS011;10765;50.954;5.322;2023-02-15T14:58:55;23.10;;;19.80;;
21215;SDS011;10765;50.954;5.322;2023-02-15T15:01:30;24.47;;;18.83;;
21215;SDS011;10765;50.954;5.322;2023-02-15T15:03:59;22.13;;;19.73;;
21215;SDS011;10765;50.954;5.322;2023-02-15T15:06:29;23.07;;;19.30;;